English version
lugares datos climáticos artículos

datos de Mairena del Aljarafe, Sevilla, España
Año Mes Dia Mostrar

  Fecha       hora        Temp.ext.    Hum.ext.  Dir.Viento   Vel.Viento  Presion al NM   T.int. Prec.hoy 

   24-07-2021    20:10      33.0º(-3.3)     26%      270 (W)     16.1 km/h    1008.8 hpa     27.4º    0.0 mm
   24-07-2021    20:05      33.1º(-3.5)     26%      270 (W)     14.5 km/h    1008.8 hpa     27.6º    0.0 mm
   24-07-2021    20:00      33.2º(-3.4)     26%      270 (W)     12.9 km/h    1008.8 hpa     27.6º    0.0 mm
   24-07-2021    19:55      33.3º(-3.4)     26%      270 (W)     12.9 km/h    1008.7 hpa     27.4º    0.0 mm
   24-07-2021    19:50      33.4º(-3.5)     25%      270 (W)     16.1 km/h    1008.8 hpa     27.3º    0.0 mm
   24-07-2021    19:45      33.7º(-3.2)     25%      270 (W)     12.9 km/h    1008.9 hpa     27.3º    0.0 mm
   24-07-2021    19:40      33.8º(-3.3)     26%      247(SW)     11.3 km/h    1008.8 hpa     27.4º    0.0 mm
   24-07-2021    19:35      33.8º(-3.4)     25%      270 (W)     16.1 km/h    1008.8 hpa     27.6º    0.0 mm
   24-07-2021    19:30      34.0º(-3.5)     25%      270 (W)     14.5 km/h    1008.8 hpa     27.6º    0.0 mm
   24-07-2021    19:25      34.2º(-3.2)     25%      270 (W)     14.5 km/h    1008.8 hpa     27.3º    0.0 mm
   24-07-2021    19:20      34.5º(-3.2)     24%      270 (W)     19.3 km/h    1008.7 hpa     27.3º    0.0 mm
   24-07-2021    19:15      35.1º(-2.6)     24%      270 (W)     16.1 km/h    1008.8 hpa     27.3º    0.0 mm
   24-07-2021    19:10      35.7º(-2.0)     23%      270 (W)     14.5 km/h    1008.7 hpa     27.4º    0.0 mm
   24-07-2021    19:05      36.3º(-1.5)     22%      270 (W)     11.3 km/h    1008.8 hpa     27.6º    0.0 mm
   24-07-2021    19:00      36.7º(-1.2)     13%      270 (W)     11.3 km/h    1008.8 hpa     27.6º    0.0 mm
   24-07-2021    18:55      36.4º(-1.7)     14%      270 (W)      8.0 km/h    1008.8 hpa     27.4º    0.0 mm
   24-07-2021    18:50      36.0º(-2.2)     20%      157(SE)      3.2 km/h    1008.8 hpa     27.3º    0.0 mm
   24-07-2021    18:45      35.5º(-2.8)     20%      090 (E)      3.2 km/h    1008.8 hpa     27.3º    0.0 mm
   24-07-2021    18:40      35.1º(-3.3)     22%      090 (E)      6.4 km/h    1008.8 hpa     27.4º    0.0 mm
   24-07-2021    18:35      34.7º(-4.0)     27%      090 (E)      6.4 km/h    1009.2 hpa     27.6º    0.0 mm
   24-07-2021    18:30      34.6º(-4.1)     27%      067(NE)      8.0 km/h    1009.1 hpa     27.6º    0.0 mm
   24-07-2021    18:25      34.7º(-3.9)     26%      090 (E)      9.7 km/h    1009.1 hpa     27.4º    0.0 mm
   24-07-2021    18:20      34.6º(-3.8)     24%      045(NE)      8.0 km/h    1008.9 hpa     27.3º    0.0 mm
   24-07-2021    18:15      34.4º(-3.9)     25%      090 (E)     11.3 km/h    1009.1 hpa     27.2º    0.0 mm
   24-07-2021    18:10      34.4º(-3.9)     26%      090 (E)     12.9 km/h    1008.9 hpa     27.3º    0.0 mm
   24-07-2021    18:05      34.3º(-4.1)     24%      090 (E)      9.7 km/h    1008.9 hpa     27.3º    0.0 mm
   24-07-2021    18:00      34.3º(-4.3)     24%      022 (N)      9.7 km/h    1009.0 hpa     27.4º    0.0 mm
   24-07-2021    17:55      34.2º(-4.5)     24%      067(NE)     11.3 km/h    1009.3 hpa     27.3º    0.0 mm
   24-07-2021    17:50      34.1º(-4.3)     26%      090 (E)     11.3 km/h    1009.4 hpa     27.1º    0.0 mm
   24-07-2021    17:45      33.8º(-4.5)     27%      112 (E)     17.7 km/h    1009.3 hpa     26.9º    0.0 mm
   24-07-2021    17:40      34.7º(-3.9)     25%      090 (E)      9.7 km/h    1009.5 hpa     26.9º    0.0 mm
   24-07-2021    17:35      34.9º(-3.4)     25%      045(NE)      9.7 km/h    1009.4 hpa     27.0º    0.0 mm
   24-07-2021    17:30      35.2º(-3.0)     23%      045(NE)      9.7 km/h    1009.6 hpa     27.0º    0.0 mm
   24-07-2021    17:25      35.3º(-2.6)     22%      090 (E)      6.4 km/h    1009.6 hpa     27.0º    0.0 mm
   24-07-2021    17:20      35.4º(-2.5)     22%      022 (N)      6.4 km/h    1009.6 hpa     27.1º    0.0 mm
   24-07-2021    17:15      35.6º(-2.2)     22%      045(NE)      6.4 km/h    1009.7 hpa     27.1º    0.0 mm
   24-07-2021    17:10      35.7º(-2.1)     22%      045(NE)      6.4 km/h    1009.7 hpa     27.1º    0.0 mm
   24-07-2021    17:05      35.3º(-2.5)     21%      045(NE)      6.4 km/h    1009.7 hpa     27.2º    0.0 mm
   24-07-2021    17:00      34.9º(-2.8)     21%      090 (E)      6.4 km/h    1009.7 hpa     27.2º    0.0 mm
   24-07-2021    16:55      35.2º(-2.1)     21%      090 (E)      6.4 km/h    1009.7 hpa     27.2º    0.0 mm
   24-07-2021    16:50      35.1º(-2.0)     21%      112 (E)      4.8 km/h    1009.8 hpa     27.3º    0.0 mm
   24-07-2021    16:45      35.2º(-2.0)     21%      112 (E)      3.2 km/h    1010.0 hpa     27.3º    0.0 mm
   24-07-2021    16:40      35.2º(-2.1)     22%      090 (E)      3.2 km/h    1010.0 hpa     27.4º    0.0 mm
   24-07-2021    16:35      35.1º(-2.1)     22%      180 (S)      3.2 km/h    1010.1 hpa     27.4º    0.0 mm
   24-07-2021    16:30      34.9º(-2.0)     22%      180 (S)      3.2 km/h    1010.1 hpa     27.6º    0.0 mm
   24-07-2021    16:25      34.9º(-2.1)     22%      090 (E)      4.8 km/h    1010.2 hpa     27.7º    0.0 mm
   24-07-2021    16:20      34.8º(-2.4)     22%      067(NE)      3.2 km/h    1010.3 hpa     27.8º    0.0 mm
   24-07-2021    16:15      34.6º(-2.7)     23%      157(SE)      4.8 km/h    1010.2 hpa     27.8º    0.0 mm
   24-07-2021    16:10      34.4º(-2.7)     23%      157(SE)      4.8 km/h    1010.3 hpa     27.8º    0.0 mm
   24-07-2021    16:05      34.4º(-2.5)     23%      180 (S)      3.2 km/h    1010.1 hpa     27.9º    0.0 mm
   24-07-2021    16:00      34.3º(-2.7)     24%      090 (E)      4.8 km/h    1010.3 hpa     28.1º    0.0 mm
   24-07-2021    15:55      34.3º(-2.8)     23%      135(SE)      3.2 km/h    1010.4 hpa     28.2º    0.0 mm
   24-07-2021    15:50      34.4º(-2.7)     23%      090 (E)      4.8 km/h    1010.5 hpa     28.3º    0.0 mm
   24-07-2021    15:45      34.9º(-2.2)     23%      022 (N)      6.4 km/h    1010.5 hpa     28.4º    0.0 mm
   24-07-2021    15:40      35.4º(-1.8)     22%      225(SW)      4.8 km/h    1010.5 hpa     28.5º    0.0 mm
   24-07-2021    15:35      35.3º(-2.0)     17%      180 (S)      4.8 km/h    1010.5 hpa     28.6º    0.0 mm
   24-07-2021    15:30      35.3º(-1.9)     16%      292 (W)      3.2 km/h    1010.5 hpa     28.7º    0.0 mm
   24-07-2021    15:25      35.1º(-1.8)     17%      270 (W)      3.2 km/h    1010.6 hpa     28.8º    0.0 mm
   24-07-2021    15:20      35.2º(-1.4)     16%      270 (W)      6.4 km/h    1010.6 hpa     28.9º    0.0 mm
   24-07-2021    15:15      35.1º(-1.3)     16%      270 (W)      3.2 km/h    1010.6 hpa     29.1º    0.0 mm
   24-07-2021    15:10      34.9º(-1.4)     15%      270 (W)      3.2 km/h    1010.8 hpa     29.2º    0.0 mm
   24-07-2021    15:05      34.6º(-1.5)     16%      000 (N)      4.8 km/h    1010.7 hpa     29.2º    0.0 mm
   24-07-2021    15:00      34.3º(-1.8)     15%      270 (W)      6.4 km/h    1010.8 hpa     29.1º    0.0 mm
   24-07-2021    14:55      34.4º(-1.5)     14%      292 (W)      6.4 km/h    1010.8 hpa     29.1º    0.0 mm
   24-07-2021    14:50      34.6º(-1.2)     14%      270 (W)      6.4 km/h    1010.9 hpa     29.2º    0.0 mm
   24-07-2021    14:45      34.5º(-1.0)     17%      292 (W)      3.2 km/h    1010.8 hpa     29.3º    0.0 mm
   24-07-2021    14:40      34.3º(-1.0)     17%      292 (W)      3.2 km/h    1010.9 hpa     29.4º    0.0 mm
   24-07-2021    14:35      34.3º(-0.9)     18%      247(SW)      3.2 km/h    1011.0 hpa     29.6º    0.0 mm
   24-07-2021    14:30      33.9º(-1.3)     19%      292 (W)      3.2 km/h    1010.9 hpa     29.8º    0.0 mm
   24-07-2021    14:25      33.8º(-1.2)     19%      337(NW)      3.2 km/h    1011.0 hpa     29.9º    0.0 mm
   24-07-2021    14:20      33.6º(-1.2)     20%      247(SW)      1.6 km/h    1011.0 hpa     29.9º    0.0 mm
   24-07-2021    14:15      33.4º(-1.4)     20%      270 (W)      6.4 km/h    1011.1 hpa     29.9º    0.0 mm
   24-07-2021    14:10      33.4º(-1.0)     20%      247(SW)      3.2 km/h    1011.1 hpa     29.8º    0.0 mm
   24-07-2021    14:05      33.3º(-0.7)     21%      045(NE)      1.6 km/h    1011.1 hpa     29.8º    0.0 mm
   24-07-2021    14:00      33.1º(-0.6)     22%         -         0.0 km/h    1011.1 hpa     29.7º    0.0 mm
   24-07-2021    13:55      32.7º(-0.9)     22%      315(NW)      1.6 km/h    1011.3 hpa     29.7º    0.0 mm
   24-07-2021    13:50      32.2º(-1.4)     24%      315(NW)      1.6 km/h    1011.2 hpa     29.6º    0.0 mm
   24-07-2021    13:45      31.9º(-1.7)     25%      315(NW)      1.6 km/h    1011.3 hpa     29.6º    0.0 mm
   24-07-2021    13:40      32.0º(-1.4)     25%      000 (N)      3.2 km/h    1011.4 hpa     29.5º    0.0 mm
   24-07-2021    13:35      32.0º(-1.3)     25%      045(NE)      1.6 km/h    1011.6 hpa     29.4º    0.0 mm
   24-07-2021    13:30      31.7º(-1.6)     26%      090 (E)      1.6 km/h    1011.7 hpa     29.3º    0.0 mm
   24-07-2021    13:25      31.3º(-2.0)     27%         -         0.0 km/h    1011.8 hpa     29.2º    0.0 mm
   24-07-2021    13:20      31.0º(-2.1)     28%      270 (W)      1.6 km/h    1011.9 hpa     29.1º    0.0 mm
   24-07-2021    13:15      30.7º(-2.3)     29%      270 (W)      1.6 km/h    1011.9 hpa     28.9º    0.0 mm
   24-07-2021    13:10      30.4º(-2.5)     30%      270 (W)      3.2 km/h    1011.9 hpa     28.8º    0.0 mm
   24-07-2021    13:05      30.3º(-2.9)     29%      270 (W)      3.2 km/h    1012.0 hpa     28.7º    0.0 mm
   24-07-2021    13:00      30.4º(-2.5)     30%      270 (W)      1.6 km/h    1012.2 hpa     28.7º    0.0 mm
   24-07-2021    12:55      30.4º(-2.2)     31%      270 (W)      3.2 km/h    1012.2 hpa     28.8º    0.0 mm
   24-07-2021    12:50      30.2º(-2.7)     31%      112 (E)      1.6 km/h    1012.2 hpa     28.9º    0.0 mm
   24-07-2021    12:45      30.3º(-2.4)     32%      112 (E)      3.2 km/h    1012.1 hpa     29.1º    0.0 mm
   24-07-2021    12:40      30.3º(-2.1)     33%         -         0.0 km/h    1012.4 hpa     29.3º    0.0 mm
   24-07-2021    12:35      29.9º(-2.3)     33%      180 (S)      1.6 km/h    1012.4 hpa     29.4º    0.0 mm
   24-07-2021    12:30      30.0º(-1.8)     33%      180 (S)      1.6 km/h    1012.4 hpa     29.6º    0.0 mm
   24-07-2021    12:25      29.6º(-2.0)     34%      180 (S)      1.6 km/h    1012.5 hpa     29.7º    0.0 mm
   24-07-2021    12:20      29.2º(-1.9)     34%         -         0.0 km/h    1012.4 hpa     29.9º    0.0 mm
   24-07-2021    12:15      28.9º(-1.7)     34%      067(NE)      3.2 km/h    1012.4 hpa     30.1º    0.0 mm
   24-07-2021    12:10      28.5º(-1.7)     36%      112 (E)      1.6 km/h    1012.4 hpa     30.3º    0.0 mm
   24-07-2021    12:05      28.1º(-1.9)     37%      090 (E)      3.2 km/h    1012.3 hpa     30.4º    0.0 mm
   24-07-2021    12:00      28.2º(-1.6)     37%      090 (E)      3.2 km/h    1012.3 hpa     30.4º    0.0 mm
   24-07-2021    11:55      28.3º(-1.3)     36%      090 (E)      3.2 km/h    1012.5 hpa     30.4º    0.0 mm
   24-07-2021    11:50      28.5º(-1.0)     36%      090 (E)      1.6 km/h    1012.4 hpa     30.4º    0.0 mm
   24-07-2021    11:45      28.4º(-1.4)     38%         -         0.0 km/h    1012.4 hpa     30.4º    0.0 mm
   24-07-2021    11:40      27.9º(-2.1)     39%      090 (E)      1.6 km/h    1012.4 hpa     30.3º    0.0 mm
   24-07-2021    11:35      28.2º(-1.9)     37%      090 (E)      3.2 km/h    1012.4 hpa     30.3º    0.0 mm
   24-07-2021    11:30      28.1º(-2.3)     39%      022 (N)      1.6 km/h    1012.3 hpa     30.3º    0.0 mm
   24-07-2021    11:25      27.7º(-2.6)     40%      000 (N)      1.6 km/h    1012.3 hpa     30.3º    0.0 mm
   24-07-2021    11:20      27.4º(-2.9)     40%      000 (N)      1.6 km/h    1012.3 hpa     30.2º    0.0 mm
   24-07-2021    11:15      27.1º(-3.2)     41%      000 (N)      3.2 km/h    1012.3 hpa     30.2º    0.0 mm
   24-07-2021    11:10      26.8º(-3.5)     41%      000 (N)      1.6 km/h    1012.2 hpa     30.2º    0.0 mm
   24-07-2021    11:05      26.7º(-3.5)     41%      000 (N)      4.8 km/h    1012.2 hpa     30.2º    0.0 mm
   24-07-2021    11:00      26.6º(-3.2)     43%      000 (N)      1.6 km/h    1012.2 hpa     30.1º    0.0 mm
   24-07-2021    10:55      26.3º(-3.3)     43%      022 (N)      3.2 km/h    1012.2 hpa     30.1º    0.0 mm
   24-07-2021    10:50      26.1º(-3.2)     43%      045(NE)      4.8 km/h    1012.2 hpa     30.1º    0.0 mm
   24-07-2021    10:45      25.9º(-3.2)     44%      045(NE)      1.6 km/h    1012.2 hpa     29.9º    0.0 mm
   24-07-2021    10:40      25.6º(-3.2)     44%      045(NE)      1.6 km/h    1012.3 hpa     29.9º    0.0 mm
   24-07-2021    10:35      25.4º(-3.2)     45%      090 (E)      3.2 km/h    1012.2 hpa     29.9º    0.0 mm
   24-07-2021    10:30      25.3º(-3.3)     45%      090 (E)      6.4 km/h    1012.2 hpa     29.9º    0.0 mm
   24-07-2021    10:25      25.3º(-3.1)     45%      112 (E)      3.2 km/h    1012.2 hpa     29.9º    0.0 mm
   24-07-2021    10:20      25.2º(-2.9)     45%      112 (E)      6.4 km/h    1012.2 hpa     29.9º    0.0 mm
   24-07-2021    10:15      25.2º(-2.6)     45%      000 (N)      4.8 km/h    1012.2 hpa     29.9º    0.0 mm
   24-07-2021    10:10      25.1º(-2.5)     46%      000 (N)      4.8 km/h    1012.2 hpa     29.8º    0.0 mm
   24-07-2021    10:05      25.2º(-2.1)     45%      000 (N)      4.8 km/h    1012.1 hpa     29.8º    0.0 mm
   24-07-2021    10:00      25.4º(-1.9)     45%      000 (N)      3.2 km/h    1012.2 hpa     29.8º    0.0 mm
   24-07-2021    09:55      25.4º(-1.9)     45%      022 (N)      1.6 km/h    1012.2 hpa     29.7º    0.0 mm
   24-07-2021    09:50      25.2º(-1.9)     46%      067(NE)      1.6 km/h    1012.2 hpa     29.7º    0.0 mm
   24-07-2021    09:45      24.9º(-2.1)     46%      067(NE)      3.2 km/h    1012.1 hpa     29.7º    0.0 mm
   24-07-2021    09:40      24.7º(-2.4)     46%      022 (N)      3.2 km/h    1012.1 hpa     29.7º    0.0 mm
   24-07-2021    09:35      24.6º(-2.2)     46%      022 (N)      3.2 km/h    1012.0 hpa     29.6º    0.0 mm
   24-07-2021    09:30      24.7º(-1.9)     46%      022 (N)      4.8 km/h    1012.0 hpa     29.6º    0.0 mm
   24-07-2021    09:25      24.6º(-1.8)     47%      022 (N)      1.6 km/h    1012.0 hpa     29.5º    0.0 mm
   24-07-2021    09:20      24.5º(-1.8)     47%      067(NE)      3.2 km/h    1012.0 hpa     29.5º    0.0 mm
   24-07-2021    09:15      24.5º(-1.7)     47%      022 (N)      3.2 km/h    1012.0 hpa     29.5º    0.0 mm
   24-07-2021    09:10      24.5º(-1.7)     48%      000 (N)      3.2 km/h    1012.0 hpa     29.4º    0.0 mm
   24-07-2021    09:05      24.3º(-1.7)     49%      067(NE)      1.6 km/h    1011.9 hpa     29.4º    0.0 mm
   24-07-2021    09:00      24.2º(-1.6)     49%      067(NE)      1.6 km/h    1011.9 hpa     29.4º    0.0 mm
   24-07-2021    08:55      24.0º(-1.7)     49%      000 (N)      3.2 km/h    1011.9 hpa     29.3º    0.0 mm
   24-07-2021    08:50      23.9º(-1.7)     49%      000 (N)      3.2 km/h    1011.8 hpa     29.3º    0.0 mm
   24-07-2021    08:45      23.8º(-1.6)     50%      022 (N)      3.2 km/h    1011.8 hpa     29.2º    0.0 mm
   24-07-2021    08:40      23.7º(-1.6)     51%      000 (N)      4.8 km/h    1011.7 hpa     29.2º    0.0 mm
   24-07-2021    08:35      23.6º(-1.6)     51%      000 (N)      1.6 km/h    1011.7 hpa     29.2º    0.0 mm
   24-07-2021    08:30      23.6º(-1.5)     51%      000 (N)      3.2 km/h    1011.7 hpa     29.1º    0.0 mm
   24-07-2021    08:25      23.5º(-1.3)     51%      000 (N)      1.6 km/h    1011.7 hpa     29.1º    0.0 mm
   24-07-2021    08:20      23.4º(-1.2)     51%      000 (N)      1.6 km/h    1011.7 hpa     29.1º    0.0 mm
   24-07-2021    08:15      23.3º(-1.0)     51%      000 (N)      1.6 km/h    1011.8 hpa     29.1º    0.0 mm
   24-07-2021    08:10      23.2º(-1.0)     52%      000 (N)      1.6 km/h    1011.8 hpa     29.1º    0.0 mm
   24-07-2021    08:05      23.2º(-0.9)     52%      000 (N)      1.6 km/h    1011.7 hpa     29.1º    0.0 mm
   24-07-2021    08:00      23.1º(-0.9)     52%      000 (N)      1.6 km/h    1011.7 hpa     29.1º    0.0 mm
   24-07-2021    07:55      23.1º(-0.9)     52%      000 (N)      1.6 km/h    1011.6 hpa     29.1º    0.0 mm
   24-07-2021    07:50      23.0º(-1.1)     52%      000 (N)      3.2 km/h    1011.6 hpa     29.1º    0.0 mm
   24-07-2021    07:45      23.1º(-1.0)     52%      022 (N)      4.8 km/h    1011.6 hpa     29.1º    0.0 mm
   24-07-2021    07:40      23.1º(-1.1)     52%      022 (N)      4.8 km/h    1011.6 hpa     29.1º    0.0 mm
   24-07-2021    07:35      23.1º(-1.1)     51%      022 (N)      4.8 km/h    1011.5 hpa     29.1º    0.0 mm
   24-07-2021    07:30      23.2º(-1.1)     51%      000 (N)      4.8 km/h    1011.5 hpa     29.1º    0.0 mm
   24-07-2021    07:25      23.2º(-1.1)     51%      000 (N)      6.4 km/h    1011.4 hpa     29.1º    0.0 mm
   24-07-2021    07:20      23.3º(-1.0)     51%      000 (N)      6.4 km/h    1011.3 hpa     29.2º    0.0 mm
   24-07-2021    07:15      23.3º(-1.0)     51%      000 (N)      3.2 km/h    1011.3 hpa     29.2º    0.0 mm
   24-07-2021    07:10      23.4º(-0.9)     50%      000 (N)      4.8 km/h    1011.3 hpa     29.2º    0.0 mm
   24-07-2021    07:05      23.4º(-0.9)     50%      000 (N)      6.4 km/h    1011.2 hpa     29.2º    0.0 mm
   24-07-2021    07:00      23.6º(-0.8)     50%      000 (N)      4.8 km/h    1011.2 hpa     29.2º    0.0 mm
   24-07-2021    06:55      23.7º(-0.7)     50%      022 (N)      4.8 km/h    1011.1 hpa     29.2º    0.0 mm
   24-07-2021    06:50      23.7º(-0.8)     49%      000 (N)      4.8 km/h    1011.1 hpa     29.2º    0.0 mm
   24-07-2021    06:45      23.8º(-0.8)     49%      000 (N)      4.8 km/h    1011.0 hpa     29.2º    0.0 mm
   24-07-2021    06:40      23.8º(-0.8)     49%      000 (N)      6.4 km/h    1011.0 hpa     29.2º    0.0 mm
   24-07-2021    06:35      23.9º(-0.7)     49%      000 (N)      6.4 km/h    1010.9 hpa     29.3º    0.0 mm
   24-07-2021    06:30      23.9º(-0.7)     48%      000 (N)      6.4 km/h    1010.9 hpa     29.3º    0.0 mm
   24-07-2021    06:25      24.1º(-0.5)     48%      000 (N)      8.0 km/h    1010.9 hpa     29.3º    0.0 mm
   24-07-2021    06:20      24.1º(-0.5)     48%      000 (N)      6.4 km/h    1011.0 hpa     29.3º    0.0 mm
   24-07-2021    06:15      24.2º(-0.4)     47%      000 (N)      6.4 km/h    1011.0 hpa     29.3º    0.0 mm
   24-07-2021    06:10      24.3º(-0.4)     47%      000 (N)      6.4 km/h    1011.0 hpa     29.3º    0.0 mm
   24-07-2021    06:05      24.3º(-0.4)     47%      000 (N)      6.4 km/h    1011.0 hpa     29.3º    0.0 mm
   24-07-2021    06:00      24.4º(-0.3)     47%      000 (N)      6.4 km/h    1010.9 hpa     29.3º    0.0 mm
   24-07-2021    05:55      24.5º(-0.3)     47%      000 (N)      6.4 km/h    1010.9 hpa     29.3º    0.0 mm
   24-07-2021    05:50      24.6º(-0.2)     47%      000 (N)      4.8 km/h    1010.9 hpa     29.3º    0.0 mm
   24-07-2021    05:45      24.6º(-0.3)     46%      000 (N)      4.8 km/h    1010.9 hpa     29.4º    0.0 mm
   24-07-2021    05:40      24.7º(-0.3)     46%      000 (N)      6.4 km/h    1010.9 hpa     29.4º    0.0 mm
   24-07-2021    05:35      24.7º(-0.4)     46%      000 (N)      6.4 km/h    1010.9 hpa     29.4º    0.0 mm
   24-07-2021    05:30      24.8º(-0.3)     45%      000 (N)      6.4 km/h    1010.9 hpa     29.4º    0.0 mm
   24-07-2021    05:25      24.8º(-0.4)     45%      000 (N)      4.8 km/h    1010.9 hpa     29.4º    0.0 mm
   24-07-2021    05:20      24.9º(-0.3)     45%      000 (N)      4.8 km/h    1010.9 hpa     29.4º    0.0 mm
   24-07-2021    05:15      25.1º(-0.2)     45%      000 (N)      6.4 km/h    1010.9 hpa     29.4º    0.0 mm
   24-07-2021    05:10      25.2º(-0.3)     44%      000 (N)      8.0 km/h    1010.9 hpa     29.4º    0.0 mm
   24-07-2021    05:05      25.3º(-0.5)     44%      000 (N)      8.0 km/h    1010.9 hpa     29.4º    0.0 mm
   24-07-2021    05:00      25.4º(-0.5)     43%      000 (N)      8.0 km/h    1011.0 hpa     29.4º    0.0 mm
   24-07-2021    04:55      25.5º(-0.4)     43%      000 (N)      6.4 km/h    1011.0 hpa     29.4º    0.0 mm
   24-07-2021    04:50      25.6º(-0.5)     42%      000 (N)      6.4 km/h    1010.9 hpa     29.4º    0.0 mm
   24-07-2021    04:45      25.8º(-0.4)     42%      000 (N)      6.4 km/h    1010.8 hpa     29.4º    0.0 mm
   24-07-2021    04:40      25.9º(-0.6)     41%      000 (N)      3.2 km/h    1010.8 hpa     29.4º    0.0 mm
   24-07-2021    04:35      25.9º(-0.8)     41%      000 (N)      4.8 km/h    1010.7 hpa     29.4º    0.0 mm
   24-07-2021    04:30      26.1º(-0.7)     41%      000 (N)      4.8 km/h    1010.7 hpa     29.4º    0.0 mm
   24-07-2021    04:25      26.1º(-0.7)     41%      000 (N)      4.8 km/h    1010.7 hpa     29.4º    0.0 mm
   24-07-2021    04:20      26.2º(-0.6)     40%      000 (N)      6.4 km/h    1010.7 hpa     29.4º    0.0 mm
   24-07-2021    04:15      26.3º(-0.5)     40%      000 (N)      6.4 km/h    1010.6 hpa     29.4º    0.0 mm
   24-07-2021    04:10      26.3º(-0.5)     40%      337(NW)      8.0 km/h    1010.7 hpa     29.4º    0.0 mm
   24-07-2021    04:05      26.4º(-0.4)     40%      000 (N)      6.4 km/h    1010.7 hpa     29.4º    0.0 mm
   24-07-2021    04:00      26.6º(-0.2)     39%      337(NW)      6.4 km/h    1010.6 hpa     29.4º    0.0 mm
   24-07-2021    03:55      26.7º(-0.1)     39%      337(NW)      6.4 km/h    1010.7 hpa     29.4º    0.0 mm
   24-07-2021    03:50      26.7º(-0.1)     39%      337(NW)      4.8 km/h    1010.6 hpa     29.4º    0.0 mm
   24-07-2021    03:45      26.8º(+0.0)     39%      337(NW)      6.4 km/h    1010.5 hpa     29.4º    0.0 mm
   24-07-2021    03:40      26.8º(+0.1)     39%      000 (N)      6.4 km/h    1010.5 hpa     29.4º    0.0 mm
   24-07-2021    03:35      26.9º(+0.2)     38%      000 (N)      4.8 km/h    1010.6 hpa     29.4º    0.0 mm
   24-07-2021    03:30      27.1º(+0.4)     38%      000 (N)      4.8 km/h    1010.6 hpa     29.4º    0.0 mm
   24-07-2021    03:25      27.2º(+0.5)     38%      337(NW)      6.4 km/h    1010.5 hpa     29.4º    0.0 mm
   24-07-2021    03:20      27.2º(+0.5)     37%      337(NW)      6.4 km/h    1010.6 hpa     29.4º    0.0 mm
   24-07-2021    03:15      27.3º(+0.6)     37%      000 (N)      6.4 km/h    1010.6 hpa     29.4º    0.0 mm
   24-07-2021    03:10      27.4º(+0.6)     37%      000 (N)      4.8 km/h    1010.7 hpa     29.4º    0.0 mm
   24-07-2021    03:05      27.5º(+0.6)     36%      000 (N)      4.8 km/h    1010.6 hpa     29.4º    0.0 mm
   24-07-2021    03:00      27.6º(+0.5)     36%      000 (N)      3.2 km/h    1010.6 hpa     29.3º    0.0 mm
   24-07-2021    02:55      27.6º(+0.4)     36%      000 (N)      4.8 km/h    1010.7 hpa     29.3º    0.0 mm
   24-07-2021    02:50      27.7º(+0.2)     36%      315(NW)      6.4 km/h    1010.7 hpa     29.3º    0.0 mm
   24-07-2021    02:45      27.8º(+0.0)     35%      337(NW)      4.8 km/h    1010.7 hpa     29.2º    0.0 mm
   24-07-2021    02:40      27.8º(-0.0)     35%      337(NW)      6.4 km/h    1010.7 hpa     29.2º    0.0 mm
   24-07-2021    02:35      27.8º(-0.0)     35%      000 (N)      6.4 km/h    1010.7 hpa     29.2º    0.0 mm
   24-07-2021    02:30      27.9º(+0.0)     35%      337(NW)      8.0 km/h    1010.8 hpa     29.1º    0.0 mm
   24-07-2021    02:25      28.0º(+0.1)     34%      337(NW)      8.0 km/h    1010.7 hpa     29.1º    0.0 mm
   24-07-2021    02:20      28.1º(+0.2)     34%      337(NW)      8.0 km/h    1010.8 hpa     29.1º    0.0 mm
   24-07-2021    02:15      28.1º(+0.2)     34%      337(NW)      8.0 km/h    1010.8 hpa     28.9º    0.0 mm
   24-07-2021    02:10      28.2º(+0.4)     33%      337(NW)      8.0 km/h    1010.9 hpa     28.9º    0.0 mm
   24-07-2021    02:05      28.2º(+0.4)     33%      337(NW)      4.8 km/h    1011.0 hpa     28.8º    0.0 mm
   24-07-2021    02:00      28.3º(+0.5)     33%      337(NW)      8.0 km/h    1011.0 hpa     28.8º    0.0 mm
   24-07-2021    01:55      28.3º(----)     33%      337(NW)      8.0 km/h    1011.1 hpa     28.7º    0.0 mm
   24-07-2021    01:50      28.4º(----)     32%      000 (N)      6.4 km/h    1011.1 hpa     28.7º    0.0 mm
   24-07-2021    01:45      28.5º(----)     32%      337(NW)      8.0 km/h    1011.1 hpa     28.6º    0.0 mm
   24-07-2021    01:40      28.6º(----)     32%      337(NW)      8.0 km/h    1010.9 hpa     28.5º    0.0 mm
   24-07-2021    01:35      28.6º(----)     32%      337(NW)      8.0 km/h    1011.0 hpa     28.4º    0.0 mm
   24-07-2021    01:30      28.7º(----)     31%      337(NW)      8.0 km/h    1010.9 hpa     28.3º    0.0 mm
   24-07-2021    01:25      28.8º(----)     31%      337(NW)      8.0 km/h    1010.9 hpa     28.2º    0.0 mm
   24-07-2021    01:20      28.9º(----)     31%      337(NW)      8.0 km/h    1011.1 hpa     27.9º    0.0 mm
   24-07-2021    01:15      28.9º(----)     30%      337(NW)      8.0 km/h    1011.0 hpa     27.8º    0.0 mm
   24-07-2021    01:10      28.9º(----)     30%      337(NW)      8.0 km/h    1011.0 hpa     27.8º    0.0 mm
   24-07-2021    01:05      28.9º(----)     30%      337(NW)      6.4 km/h    1011.0 hpa     27.8º    0.0 mm
   24-07-2021    01:00      29.0º(----)     30%      337(NW)      6.4 km/h    1011.0 hpa     27.8º    0.0 mm
   24-07-2021    00:55      29.0º(----)     29%      337(NW)      8.0 km/h    1011.0 hpa     28.1º    0.0 mm
   24-07-2021    00:50      29.2º(----)     29%      337(NW)      8.0 km/h    1010.9 hpa     28.2º    0.0 mm
   24-07-2021    00:45      29.3º(----)     29%      337(NW)      8.0 km/h    1010.8 hpa     28.4º    0.0 mm
   24-07-2021    00:40      29.4º(----)     28%      337(NW)      6.4 km/h    1010.9 hpa     28.6º    0.0 mm
   24-07-2021    00:35      29.5º(----)     28%      292 (W)      4.8 km/h    1010.8 hpa     28.8º    0.0 mm
   24-07-2021    00:30      29.6º(----)     28%      315(NW)      4.8 km/h    1010.7 hpa     28.9º    0.0 mm
   24-07-2021    00:25      29.7º(----)     28%      315(NW)      3.2 km/h    1010.7 hpa     28.8º    0.0 mm
   24-07-2021    00:20      29.9º(----)     28%      337(NW)      3.2 km/h    1010.7 hpa     28.8º    0.0 mm
   24-07-2021    00:15      30.0º(----)     27%      337(NW)      3.2 km/h    1010.8 hpa     28.7º    0.0 mm
   24-07-2021    00:10      30.2º(----)     27%      337(NW)      3.2 km/h    1010.9 hpa     28.6º    0.0 mm
   24-07-2021    00:05      30.3º(----)     27%      000 (N)      3.2 km/h    1010.9 hpa     28.6º    0.0 mm
   24-07-2021    00:00      30.4º(----)     27%      315(NW)      3.2 km/h    1010.9 hpa     28.5º    0.0 mm